sensor_id;sensor_type;location;lat;lon;timestamp;P1;durP1;ratioP1;P2;durP2;ratioP2
11962;SDS011;62678;52.130;5.584;2023-04-03T00:01:44;3.47;;;1.75;;
11962;SDS011;62678;52.130;5.584;2023-04-03T00:04:11;3.75;;;2.00;;
11962;SDS011;62678;52.130;5.584;2023-04-03T00:06:39;1.98;;;1.52;;
11962;SDS011;62678;52.130;5.584;2023-04-03T00:09:06;3.30;;;1.80;;
11962;SDS011;62678;52.130;5.584;2023-04-03T00:11:33;3.67;;;1.63;;
11962;SDS011;62678;52.130;5.584;2023-04-03T00:14:00;3.78;;;1.70;;
11962;SDS011;62678;52.130;5.584;2023-04-03T00:16:27;3.72;;;1.60;;
11962;SDS011;62678;52.130;5.584;2023-04-03T00:18:54;3.50;;;1.80;;
11962;SDS011;62678;52.130;5.584;2023-04-03T00:21:20;2.28;;;1.55;;
11962;SDS011;62678;52.130;5.584;2023-04-03T00:23:49;2.60;;;1.73;;
11962;SDS011;62678;52.130;5.584;2023-04-03T00:26:16;1.88;;;1.40;;
11962;SDS011;62678;52.130;5.584;2023-04-03T00:28:42;4.25;;;1.80;;
11962;SDS011;62678;52.130;5.584;2023-04-03T00:31:09;5.97;;;2.05;;
11962;SDS011;62678;52.130;5.584;2023-04-03T00:33:36;5.13;;;1.70;;
11962;SDS011;62678;52.130;5.584;2023-04-03T00:36:06;4.22;;;2.00;;
11962;SDS011;62678;52.130;5.584;2023-04-03T00:38:34;4.72;;;2.20;;
11962;SDS011;62678;52.130;5.584;2023-04-03T00:41:02;5.10;;;2.13;;
11962;SDS011;62678;52.130;5.584;2023-04-03T00:43:30;5.03;;;1.60;;
11962;SDS011;62678;52.130;5.584;2023-04-03T00:45:57;2.28;;;1.52;;
11962;SDS011;62678;52.130;5.584;2023-04-03T00:48:26;4.18;;;2.00;;
11962;SDS011;62678;52.130;5.584;2023-04-03T00:50:56;2.92;;;1.77;;
11962;SDS011;62678;52.130;5.584;2023-04-03T00:53:26;2.03;;;1.60;;
11962;SDS011;62678;52.130;5.584;2023-04-03T00:55:57;5.05;;;1.80;;
11962;SDS011;62678;52.130;5.584;2023-04-03T00:58:28;6.60;;;2.00;;
11962;SDS011;62678;52.130;5.584;2023-04-03T01:01:03;2.90;;;1.60;;
11962;SDS011;62678;52.130;5.584;2023-04-03T01:03:34;3.60;;;1.58;;
11962;SDS011;62678;52.130;5.584;2023-04-03T01:06:01;3.95;;;1.92;;
11962;SDS011;62678;52.130;5.584;2023-04-03T01:08:28;5.68;;;1.85;;
11962;SDS011;62678;52.130;5.584;2023-04-03T01:10:56;4.15;;;1.63;;
11962;SDS011;62678;52.130;5.584;2023-04-03T01:13:24;3.00;;;1.67;;
11962;SDS011;62678;52.130;5.584;2023-04-03T01:15:55;3.30;;;1.65;;
11962;SDS011;62678;52.130;5.584;2023-04-03T01:18:22;3.15;;;1.60;;
11962;SDS011;62678;52.130;5.584;2023-04-03T01:24:05;3.35;;;1.90;;
11962;SDS011;62678;52.130;5.584;2023-04-03T01:26:46;3.03;;;1.90;;
11962;SDS011;62678;52.130;5.584;2023-04-03T01:29:16;3.15;;;1.88;;
11962;SDS011;62678;52.130;5.584;2023-04-03T01:31:49;5.68;;;2.10;;
11962;SDS011;62678;52.130;5.584;2023-04-03T01:34:17;2.75;;;1.85;;
11962;SDS011;62678;52.130;5.584;2023-04-03T01:36:45;6.85;;;2.05;;
11962;SDS011;62678;52.130;5.584;2023-04-03T01:39:11;6.43;;;2.30;;
11962;SDS011;62678;52.130;5.584;2023-04-03T01:41:39;5.35;;;2.03;;
11962;SDS011;62678;52.130;5.584;2023-04-03T01:44:06;6.40;;;2.03;;
11962;SDS011;62678;52.130;5.584;2023-04-03T01:46:33;5.47;;;2.08;;
11962;SDS011;62678;52.130;5.584;2023-04-03T01:49:01;6.90;;;2.17;;
11962;SDS011;62678;52.130;5.584;2023-04-03T01:51:28;3.63;;;2.25;;
11962;SDS011;62678;52.130;5.584;2023-04-03T01:53:55;4.70;;;2.10;;
11962;SDS011;62678;52.130;5.584;2023-04-03T01:56:22;5.38;;;2.15;;
11962;SDS011;62678;52.130;5.584;2023-04-03T01:58:50;6.72;;;2.40;;
11962;SDS011;62678;52.130;5.584;2023-04-03T02:01:17;4.30;;;1.77;;
11962;SDS011;62678;52.130;5.584;2023-04-03T02:03:43;5.97;;;2.33;;
11962;SDS011;62678;52.130;5.584;2023-04-03T02:06:12;4.97;;;2.40;;
11962;SDS011;62678;52.130;5.584;2023-04-03T02:08:39;4.53;;;2.20;;
11962;SDS011;62678;52.130;5.584;2023-04-03T02:11:06;4.88;;;2.35;;
11962;SDS011;62678;52.130;5.584;2023-04-03T02:13:33;5.68;;;2.20;;
11962;SDS011;62678;52.130;5.584;2023-04-03T02:16:05;4.50;;;2.38;;
11962;SDS011;62678;52.130;5.584;2023-04-03T02:18:33;6.90;;;2.35;;
11962;SDS011;62678;52.130;5.584;2023-04-03T02:20:59;4.50;;;2.22;;
11962;SDS011;62678;52.130;5.584;2023-04-03T02:23:28;3.55;;;2.40;;
11962;SDS011;62678;52.130;5.584;2023-04-03T02:26:02;5.28;;;1.98;;
11962;SDS011;62678;52.130;5.584;2023-04-03T02:28:30;6.43;;;2.53;;
11962;SDS011;62678;52.130;5.584;2023-04-03T02:30:57;8.50;;;2.78;;
11962;SDS011;62678;52.130;5.584;2023-04-03T02:33:24;4.53;;;2.20;;
11962;SDS011;62678;52.130;5.584;2023-04-03T02:35:52;7.03;;;2.20;;
11962;SDS011;62678;52.130;5.584;2023-04-03T02:38:19;3.03;;;2.08;;
11962;SDS011;62678;52.130;5.584;2023-04-03T02:40:47;3.90;;;2.20;;
11962;SDS011;62678;52.130;5.584;2023-04-03T02:43:15;3.30;;;2.40;;
11962;SDS011;62678;52.130;5.584;2023-04-03T02:45:42;8.85;;;2.50;;
11962;SDS011;62678;52.130;5.584;2023-04-03T02:48:08;9.10;;;2.38;;
11962;SDS011;62678;52.130;5.584;2023-04-03T02:50:35;5.40;;;2.47;;
11962;SDS011;62678;52.130;5.584;2023-04-03T02:53:02;7.03;;;2.45;;
11962;SDS011;62678;52.130;5.584;2023-04-03T02:55:29;5.28;;;2.58;;
11962;SDS011;62678;52.130;5.584;2023-04-03T02:57:58;4.80;;;2.40;;
11962;SDS011;62678;52.130;5.584;2023-04-03T03:00:25;6.68;;;2.65;;
11962;SDS011;62678;52.130;5.584;2023-04-03T03:02:51;6.50;;;2.50;;
11962;SDS011;62678;52.130;5.584;2023-04-03T03:05:18;6.68;;;3.08;;
11962;SDS011;62678;52.130;5.584;2023-04-03T03:07:45;5.35;;;2.50;;
11962;SDS011;62678;52.130;5.584;2023-04-03T03:10:12;4.97;;;2.78;;
11962;SDS011;62678;52.130;5.584;2023-04-03T03:12:39;6.60;;;2.85;;
11962;SDS011;62678;52.130;5.584;2023-04-03T03:15:11;6.00;;;2.50;;
11962;SDS011;62678;52.130;5.584;2023-04-03T03:17:38;8.90;;;2.95;;
11962;SDS011;62678;52.130;5.584;2023-04-03T03:20:05;5.15;;;2.20;;
11962;SDS011;62678;52.130;5.584;2023-04-03T03:22:34;6.93;;;2.08;;
11962;SDS011;62678;52.130;5.584;2023-04-03T03:25:01;8.52;;;2.70;;
11962;SDS011;62678;52.130;5.584;2023-04-03T03:27:28;4.38;;;2.67;;
11962;SDS011;62678;52.130;5.584;2023-04-03T03:29:55;4.65;;;2.65;;
11962;SDS011;62678;52.130;5.584;2023-04-03T03:32:23;7.28;;;2.90;;
11962;SDS011;62678;52.130;5.584;2023-04-03T03:34:50;6.07;;;2.95;;
11962;SDS011;62678;52.130;5.584;2023-04-03T03:37:17;5.70;;;2.53;;
11962;SDS011;62678;52.130;5.584;2023-04-03T03:39:44;7.68;;;2.80;;
11962;SDS011;62678;52.130;5.584;2023-04-03T03:42:11;5.93;;;2.83;;
11962;SDS011;62678;52.130;5.584;2023-04-03T03:44:37;8.10;;;3.00;;
11962;SDS011;62678;52.130;5.584;2023-04-03T03:47:04;7.35;;;2.70;;
11962;SDS011;62678;52.130;5.584;2023-04-03T03:49:33;8.65;;;3.03;;
11962;SDS011;62678;52.130;5.584;2023-04-03T03:52:00;7.90;;;2.97;;
11962;SDS011;62678;52.130;5.584;2023-04-03T03:54:27;7.57;;;2.90;;
11962;SDS011;62678;52.130;5.584;2023-04-03T03:56:53;5.68;;;2.67;;
11962;SDS011;62678;52.130;5.584;2023-04-03T03:59:20;6.32;;;3.40;;
11962;SDS011;62678;52.130;5.584;2023-04-03T04:01:47;4.97;;;3.00;;
11962;SDS011;62678;52.130;5.584;2023-04-03T04:04:14;7.00;;;3.20;;
11962;SDS011;62678;52.130;5.584;2023-04-03T04:06:42;9.55;;;3.45;;
11962;SDS011;62678;52.130;5.584;2023-04-03T04:09:10;8.30;;;3.47;;
11962;SDS011;62678;52.130;5.584;2023-04-03T04:11:37;6.43;;;2.95;;
11962;SDS011;62678;52.130;5.584;2023-04-03T04:14:04;6.60;;;3.15;;
11962;SDS011;62678;52.130;5.584;2023-04-03T04:16:31;7.97;;;3.83;;
11962;SDS011;62678;52.130;5.584;2023-04-03T04:18:58;6.72;;;3.05;;
11962;SDS011;62678;52.130;5.584;2023-04-03T04:21:25;8.20;;;3.15;;
11962;SDS011;62678;52.130;5.584;2023-04-03T04:23:54;7.68;;;3.30;;
11962;SDS011;62678;52.130;5.584;2023-04-03T04:26:21;8.63;;;3.30;;
11962;SDS011;62678;52.130;5.584;2023-04-03T04:28:47;6.13;;;3.20;;
11962;SDS011;62678;52.130;5.584;2023-04-03T04:31:14;7.45;;;3.45;;
11962;SDS011;62678;52.130;5.584;2023-04-03T04:33:41;10.02;;;3.33;;
11962;SDS011;62678;52.130;5.584;2023-04-03T04:36:08;8.43;;;3.40;;
11962;SDS011;62678;52.130;5.584;2023-04-03T04:38:35;9.35;;;4.10;;
11962;SDS011;62678;52.130;5.584;2023-04-03T04:41:04;7.60;;;4.18;;
11962;SDS011;62678;52.130;5.584;2023-04-03T04:43:31;9.70;;;4.50;;
11962;SDS011;62678;52.130;5.584;2023-04-03T04:46:02;8.77;;;4.05;;
11962;SDS011;62678;52.130;5.584;2023-04-03T04:48:30;11.23;;;4.32;;
11962;SDS011;62678;52.130;5.584;2023-04-03T04:50:57;8.88;;;4.03;;
11962;SDS011;62678;52.130;5.584;2023-04-03T04:53:24;14.77;;;4.35;;
11962;SDS011;62678;52.130;5.584;2023-04-03T04:55:51;12.77;;;4.05;;
11962;SDS011;62678;52.130;5.584;2023-04-03T04:58:19;11.02;;;3.97;;
11962;SDS011;62678;52.130;5.584;2023-04-03T05:00:46;6.82;;;3.38;;
11962;SDS011;62678;52.130;5.584;2023-04-03T05:03:13;7.38;;;3.88;;
11962;SDS011;62678;52.130;5.584;2023-04-03T05:05:40;12.43;;;4.10;;
11962;SDS011;62678;52.130;5.584;2023-04-03T05:08:07;9.65;;;4.25;;
11962;SDS011;62678;52.130;5.584;2023-04-03T05:10:34;8.07;;;4.10;;
11962;SDS011;62678;52.130;5.584;2023-04-03T05:13:01;6.65;;;3.67;;
11962;SDS011;62678;52.130;5.584;2023-04-03T05:15:29;9.55;;;3.95;;
11962;SDS011;62678;52.130;5.584;2023-04-03T05:17:56;5.53;;;3.35;;
11962;SDS011;62678;52.130;5.584;2023-04-03T05:20:23;6.65;;;3.17;;
11962;SDS011;62678;52.130;5.584;2023-04-03T05:22:50;8.13;;;3.20;;
11962;SDS011;62678;52.130;5.584;2023-04-03T05:25:17;7.68;;;3.72;;
11962;SDS011;62678;52.130;5.584;2023-04-03T05:27:44;9.15;;;3.50;;
11962;SDS011;62678;52.130;5.584;2023-04-03T05:30:11;7.63;;;3.35;;
11962;SDS011;62678;52.130;5.584;2023-04-03T05:32:40;8.90;;;3.53;;
11962;SDS011;62678;52.130;5.584;2023-04-03T05:35:07;7.63;;;3.58;;
11962;SDS011;62678;52.130;5.584;2023-04-03T05:37:35;7.88;;;2.90;;
11962;SDS011;62678;52.130;5.584;2023-04-03T05:40:03;10.70;;;3.53;;
11962;SDS011;62678;52.130;5.584;2023-04-03T05:42:30;8.85;;;3.28;;
11962;SDS011;62678;52.130;5.584;2023-04-03T05:44:57;9.13;;;3.30;;
11962;SDS011;62678;52.130;5.584;2023-04-03T05:47:24;8.82;;;3.60;;
11962;SDS011;62678;52.130;5.584;2023-04-03T05:49:53;10.75;;;3.55;;
11962;SDS011;62678;52.130;5.584;2023-04-03T05:52:21;9.68;;;4.00;;
11962;SDS011;62678;52.130;5.584;2023-04-03T05:54:51;9.02;;;3.55;;
11962;SDS011;62678;52.130;5.584;2023-04-03T05:57:19;7.70;;;3.70;;
11962;SDS011;62678;52.130;5.584;2023-04-03T05:59:46;11.35;;;3.33;;
11962;SDS011;62678;52.130;5.584;2023-04-03T06:02:14;5.50;;;3.60;;
11962;SDS011;62678;52.130;5.584;2023-04-03T06:04:43;12.52;;;3.42;;
11962;SDS011;62678;52.130;5.584;2023-04-03T06:07:11;11.77;;;3.22;;
11962;SDS011;62678;52.130;5.584;2023-04-03T06:09:40;9.20;;;3.42;;
11962;SDS011;62678;52.130;5.584;2023-04-03T06:12:08;6.20;;;3.13;;
11962;SDS011;62678;52.130;5.584;2023-04-03T06:14:35;7.30;;;3.20;;
11962;SDS011;62678;52.130;5.584;2023-04-03T06:17:02;8.63;;;3.10;;
11962;SDS011;62678;52.130;5.584;2023-04-03T06:19:29;9.02;;;3.70;;
11962;SDS011;62678;52.130;5.584;2023-04-03T06:21:56;8.75;;;3.60;;
11962;SDS011;62678;52.130;5.584;2023-04-03T06:24:25;10.52;;;3.25;;
11962;SDS011;62678;52.130;5.584;2023-04-03T06:26:52;9.45;;;3.40;;
11962;SDS011;62678;52.130;5.584;2023-04-03T06:29:19;7.43;;;3.60;;
11962;SDS011;62678;52.130;5.584;2023-04-03T06:31:47;10.13;;;3.50;;
11962;SDS011;62678;52.130;5.584;2023-04-03T06:34:14;7.55;;;2.95;;
11962;SDS011;62678;52.130;5.584;2023-04-03T06:36:41;7.88;;;3.05;;
11962;SDS011;62678;52.130;5.584;2023-04-03T06:39:10;8.25;;;3.30;;
11962;SDS011;62678;52.130;5.584;2023-04-03T06:41:40;11.90;;;2.85;;
11962;SDS011;62678;52.130;5.584;2023-04-03T06:44:07;8.70;;;3.20;;
11962;SDS011;62678;52.130;5.584;2023-04-03T06:46:36;6.47;;;2.58;;
11962;SDS011;62678;52.130;5.584;2023-04-03T06:49:03;6.40;;;2.67;;
11962;SDS011;62678;52.130;5.584;2023-04-03T06:51:32;11.57;;;2.72;;
11962;SDS011;62678;52.130;5.584;2023-04-03T06:54:03;5.53;;;2.40;;
11962;SDS011;62678;52.130;5.584;2023-04-03T06:56:32;8.50;;;2.80;;
11962;SDS011;62678;52.130;5.584;2023-04-03T06:59:00;7.90;;;2.55;;
11962;SDS011;62678;52.130;5.584;2023-04-03T07:01:28;8.63;;;2.58;;
11962;SDS011;62678;52.130;5.584;2023-04-03T07:03:57;8.18;;;2.50;;
11962;SDS011;62678;52.130;5.584;2023-04-03T07:06:24;4.38;;;2.60;;
11962;SDS011;62678;52.130;5.584;2023-04-03T07:08:52;7.90;;;2.47;;
11962;SDS011;62678;52.130;5.584;2023-04-03T07:11:20;9.57;;;3.08;;
11962;SDS011;62678;52.130;5.584;2023-04-03T07:13:47;4.53;;;2.40;;
11962;SDS011;62678;52.130;5.584;2023-04-03T07:16:15;7.90;;;2.63;;
11962;SDS011;62678;52.130;5.584;2023-04-03T07:18:42;4.78;;;2.72;;
11962;SDS011;62678;52.130;5.584;2023-04-03T07:21:10;5.68;;;2.70;;
11962;SDS011;62678;52.130;5.584;2023-04-03T07:23:38;8.75;;;2.35;;
11962;SDS011;62678;52.130;5.584;2023-04-03T07:26:06;7.60;;;2.42;;
11962;SDS011;62678;52.130;5.584;2023-04-03T07:28:33;6.10;;;2.67;;
11962;SDS011;62678;52.130;5.584;2023-04-03T07:31:02;5.20;;;2.10;;
11962;SDS011;62678;52.130;5.584;2023-04-03T07:33:32;5.60;;;2.45;;
11962;SDS011;62678;52.130;5.584;2023-04-03T07:36:00;5.97;;;2.25;;
11962;SDS011;62678;52.130;5.584;2023-04-03T07:38:27;5.60;;;2.33;;
11962;SDS011;62678;52.130;5.584;2023-04-03T07:40:54;4.60;;;2.03;;
11962;SDS011;62678;52.130;5.584;2023-04-03T07:43:21;5.10;;;2.05;;
11962;SDS011;62678;52.130;5.584;2023-04-03T07:45:49;4.38;;;2.00;;
11962;SDS011;62678;52.130;5.584;2023-04-03T07:48:19;7.85;;;2.08;;
11962;SDS011;62678;52.130;5.584;2023-04-03T07:50:49;3.72;;;1.67;;
11962;SDS011;62678;52.130;5.584;2023-04-03T07:53:17;7.63;;;1.80;;
11962;SDS011;62678;52.130;5.584;2023-04-03T07:55:45;5.70;;;1.95;;
11962;SDS011;62678;52.130;5.584;2023-04-03T07:58:14;4.28;;;1.83;;
11962;SDS011;62678;52.130;5.584;2023-04-03T08:00:43;6.88;;;1.77;;
11962;SDS011;62678;52.130;5.584;2023-04-03T08:03:11;6.35;;;1.88;;
11962;SDS011;62678;52.130;5.584;2023-04-03T08:05:39;3.17;;;1.42;;
11962;SDS011;62678;52.130;5.584;2023-04-03T08:08:09;5.00;;;1.83;;
11962;SDS011;62678;52.130;5.584;2023-04-03T08:10:37;3.15;;;1.60;;
11962;SDS011;62678;52.130;5.584;2023-04-03T08:13:04;4.45;;;1.63;;
11962;SDS011;62678;52.130;5.584;2023-04-03T08:15:31;2.90;;;1.30;;
11962;SDS011;62678;52.130;5.584;2023-04-03T08:17:59;2.83;;;1.42;;
11962;SDS011;62678;52.130;5.584;2023-04-03T08:20:26;3.40;;;1.63;;
11962;SDS011;62678;52.130;5.584;2023-04-03T08:22:54;6.60;;;1.95;;
11962;SDS011;62678;52.130;5.584;2023-04-03T08:25:23;4.60;;;1.48;;
11962;SDS011;62678;52.130;5.584;2023-04-03T08:27:51;4.13;;;1.50;;
11962;SDS011;62678;52.130;5.584;2023-04-03T08:30:18;3.17;;;1.70;;
11962;SDS011;62678;52.130;5.584;2023-04-03T08:32:45;3.40;;;1.23;;
11962;SDS011;62678;52.130;5.584;2023-04-03T08:35:12;4.40;;;1.35;;
11962;SDS011;62678;52.130;5.584;2023-04-03T08:37:40;3.47;;;1.77;;
11962;SDS011;62678;52.130;5.584;2023-04-03T08:40:08;3.67;;;1.40;;
11962;SDS011;62678;52.130;5.584;2023-04-03T08:42:44;2.08;;;0.90;;
11962;SDS011;62678;52.130;5.584;2023-04-03T08:45:21;3.22;;;1.10;;
11962;SDS011;62678;52.130;5.584;2023-04-03T08:47:58;1.92;;;1.00;;
11962;SDS011;62678;52.130;5.584;2023-04-03T08:50:31;2.13;;;0.93;;
11962;SDS011;62678;52.130;5.584;2023-04-03T08:53:04;2.78;;;1.20;;
11962;SDS011;62678;52.130;5.584;2023-04-03T08:55:39;3.53;;;0.90;;
11962;SDS011;62678;52.130;5.584;2023-04-03T08:58:12;1.77;;;1.20;;
11962;SDS011;62678;52.130;5.584;2023-04-03T09:00:44;2.42;;;0.90;;
11962;SDS011;62678;52.130;5.584;2023-04-03T09:03:14;3.10;;;0.77;;
11962;SDS011;62678;52.130;5.584;2023-04-03T09:05:43;2.60;;;0.85;;
11962;SDS011;62678;52.130;5.584;2023-04-03T09:08:21;1.83;;;0.80;;
11962;SDS011;62678;52.130;5.584;2023-04-03T09:10:52;2.28;;;0.82;;
11962;SDS011;62678;52.130;5.584;2023-04-03T09:13:35;2.08;;;0.70;;
11962;SDS011;62678;52.130;5.584;2023-04-03T09:16:13;1.15;;;0.60;;
11962;SDS011;62678;52.130;5.584;2023-04-03T09:18:47;5.65;;;3.08;;
11962;SDS011;62678;52.130;5.584;2023-04-03T09:21:20;0.82;;;0.80;;
11962;SDS011;62678;52.130;5.584;2023-04-03T09:23:51;1.95;;;0.77;;
11962;SDS011;62678;52.130;5.584;2023-04-03T09:26:23;1.33;;;0.52;;
11962;SDS011;62678;52.130;5.584;2023-04-03T09:28:54;1.15;;;0.60;;
11962;SDS011;62678;52.130;5.584;2023-04-03T09:31:26;1.42;;;0.50;;
11962;SDS011;62678;52.130;5.584;2023-04-03T09:33:57;1.17;;;0.60;;
11962;SDS011;62678;52.130;5.584;2023-04-03T09:36:41;1.30;;;0.55;;
11962;SDS011;62678;52.130;5.584;2023-04-03T09:39:11;2.60;;;0.80;;
11962;SDS011;62678;52.130;5.584;2023-04-03T09:41:41;0.98;;;0.65;;
11962;SDS011;62678;52.130;5.584;2023-04-03T09:44:23;1.33;;;0.73;;
11962;SDS011;62678;52.130;5.584;2023-04-03T09:46:51;3.17;;;0.80;;
11962;SDS011;62678;52.130;5.584;2023-04-03T09:49:18;1.83;;;0.57;;
11962;SDS011;62678;52.130;5.584;2023-04-03T09:51:46;2.50;;;0.77;;
11962;SDS011;62678;52.130;5.584;2023-04-03T09:54:25;3.33;;;0.60;;
11962;SDS011;62678;52.130;5.584;2023-04-03T09:56:57;2.53;;;0.60;;
11962;SDS011;62678;52.130;5.584;2023-04-03T09:59:31;2.38;;;0.65;;
11962;SDS011;62678;52.130;5.584;2023-04-03T10:02:00;1.13;;;0.60;;
11962;SDS011;62678;52.130;5.584;2023-04-03T10:04:39;1.27;;;0.50;;
11962;SDS011;62678;52.130;5.584;2023-04-03T10:10:01;1.40;;;0.40;;
11962;SDS011;62678;52.130;5.584;2023-04-03T10:12:29;3.03;;;0.70;;
11962;SDS011;62678;52.130;5.584;2023-04-03T10:14:58;3.38;;;0.70;;
11962;SDS011;62678;52.130;5.584;2023-04-03T10:17:30;3.13;;;0.63;;
11962;SDS011;62678;52.130;5.584;2023-04-03T10:20:06;0.77;;;0.50;;
11962;SDS011;62678;52.130;5.584;2023-04-03T10:22:43;2.33;;;0.80;;
11962;SDS011;62678;52.130;5.584;2023-04-03T10:25:17;1.65;;;0.50;;
11962;SDS011;62678;52.130;5.584;2023-04-03T10:27:53;2.38;;;0.70;;
11962;SDS011;62678;52.130;5.584;2023-04-03T10:30:33;1.05;;;0.60;;
11962;SDS011;62678;52.130;5.584;2023-04-03T10:33:11;1.70;;;0.57;;
11962;SDS011;62678;52.130;5.584;2023-04-03T10:35:53;0.65;;;0.50;;
11962;SDS011;62678;52.130;5.584;2023-04-03T10:38:30;0.85;;;0.50;;
11962;SDS011;62678;52.130;5.584;2023-04-03T10:41:04;1.75;;;0.60;;
11962;SDS011;62678;52.130;5.584;2023-04-03T10:43:39;0.60;;;0.50;;
11962;SDS011;62678;52.130;5.584;2023-04-03T10:46:15;3.28;;;0.68;;
11962;SDS011;62678;52.130;5.584;2023-04-03T10:48:56;1.10;;;0.50;;
11962;SDS011;62678;52.130;5.584;2023-04-03T10:51:33;0.80;;;0.50;;
11962;SDS011;62678;52.130;5.584;2023-04-03T10:54:08;1.70;;;0.55;;
11962;SDS011;62678;52.130;5.584;2023-04-03T10:56:39;0.90;;;0.60;;
11962;SDS011;62678;52.130;5.584;2023-04-03T10:59:16;0.93;;;0.55;;
11962;SDS011;62678;52.130;5.584;2023-04-03T11:01:51;2.40;;;0.93;;
11962;SDS011;62678;52.130;5.584;2023-04-03T11:04:21;1.45;;;0.70;;
11962;SDS011;62678;52.130;5.584;2023-04-03T11:06:53;0.73;;;0.50;;
11962;SDS011;62678;52.130;5.584;2023-04-03T11:09:27;2.53;;;0.82;;
11962;SDS011;62678;52.130;5.584;2023-04-03T11:11:57;1.80;;;0.73;;
11962;SDS011;62678;52.130;5.584;2023-04-03T11:14:30;1.55;;;0.70;;
11962;SDS011;62678;52.130;5.584;2023-04-03T11:17:04;2.90;;;0.60;;
11962;SDS011;62678;52.130;5.584;2023-04-03T11:19:39;4.50;;;0.80;;
11962;SDS011;62678;52.130;5.584;2023-04-03T11:22:13;2.00;;;0.60;;
11962;SDS011;62678;52.130;5.584;2023-04-03T11:24:51;0.70;;;0.57;;
11962;SDS011;62678;52.130;5.584;2023-04-03T11:27:24;3.53;;;1.92;;
11962;SDS011;62678;52.130;5.584;2023-04-03T11:29:56;3.03;;;0.90;;
11962;SDS011;62678;52.130;5.584;2023-04-03T11:32:32;1.92;;;0.70;;
11962;SDS011;62678;52.130;5.584;2023-04-03T11:35:15;1.90;;;0.60;;
11962;SDS011;62678;52.130;5.584;2023-04-03T11:37:44;3.22;;;0.70;;
11962;SDS011;62678;52.130;5.584;2023-04-03T11:40:19;2.30;;;1.00;;
11962;SDS011;62678;52.130;5.584;2023-04-03T11:42:52;1.98;;;0.90;;
11962;SDS011;62678;52.130;5.584;2023-04-03T11:45:24;2.47;;;0.80;;
11962;SDS011;62678;52.130;5.584;2023-04-03T11:47:59;0.90;;;0.70;;
11962;SDS011;62678;52.130;5.584;2023-04-03T11:50:46;1.55;;;0.70;;
11962;SDS011;62678;52.130;5.584;2023-04-03T11:53:27;2.58;;;0.85;;
11962;SDS011;62678;52.130;5.584;2023-04-03T11:55:57;2.35;;;0.70;;
11962;SDS011;62678;52.130;5.584;2023-04-03T11:58:30;0.77;;;0.63;;
11962;SDS011;62678;52.130;5.584;2023-04-03T12:01:03;1.33;;;0.70;;
11962;SDS011;62678;52.130;5.584;2023-04-03T12:03:52;1.35;;;0.70;;
11962;SDS011;62678;52.130;5.584;2023-04-03T12:09:31;1.17;;;0.77;;
11962;SDS011;62678;52.130;5.584;2023-04-03T12:12:30;1.63;;;0.80;;
11962;SDS011;62678;52.130;5.584;2023-04-03T12:15:19;2.55;;;0.77;;
11962;SDS011;62678;52.130;5.584;2023-04-03T12:21:08;2.58;;;0.90;;
11962;SDS011;62678;52.130;5.584;2023-04-03T12:23:36;2.55;;;0.70;;
11962;SDS011;62678;52.130;5.584;2023-04-03T12:26:21;3.53;;;0.90;;
11962;SDS011;62678;52.130;5.584;2023-04-03T12:28:52;2.03;;;0.70;;
11962;SDS011;62678;52.130;5.584;2023-04-03T12:31:22;1.50;;;0.90;;
11962;SDS011;62678;52.130;5.584;2023-04-03T12:34:04;1.60;;;0.88;;
11962;SDS011;62678;52.130;5.584;2023-04-03T12:36:42;1.63;;;0.70;;
11962;SDS011;62678;52.130;5.584;2023-04-03T12:39:19;3.42;;;0.80;;
11962;SDS011;62678;52.130;5.584;2023-04-03T12:42:11;6.00;;;1.10;;
11962;SDS011;62678;52.130;5.584;2023-04-03T12:44:49;2.78;;;0.80;;
11962;SDS011;62678;52.130;5.584;2023-04-03T12:47:27;2.25;;;0.90;;
11962;SDS011;62678;52.130;5.584;2023-04-03T12:49:59;2.28;;;0.80;;
11962;SDS011;62678;52.130;5.584;2023-04-03T12:52:30;2.83;;;0.93;;
11962;SDS011;62678;52.130;5.584;2023-04-03T12:55:01;5.60;;;1.02;;
11962;SDS011;62678;52.130;5.584;2023-04-03T12:57:35;2.40;;;0.98;;
11962;SDS011;62678;52.130;5.584;2023-04-03T13:02:49;2.17;;;1.25;;
11962;SDS011;62678;52.130;5.584;2023-04-03T13:05:19;3.28;;;1.17;;
11962;SDS011;62678;52.130;5.584;2023-04-03T13:07:48;2.90;;;0.90;;
11962;SDS011;62678;52.130;5.584;2023-04-03T13:10:18;1.88;;;1.02;;
11962;SDS011;62678;52.130;5.584;2023-04-03T13:12:47;2.40;;;1.00;;
11962;SDS011;62678;52.130;5.584;2023-04-03T13:15:17;2.05;;;0.93;;
11962;SDS011;62678;52.130;5.584;2023-04-03T13:17:51;3.28;;;0.98;;
11962;SDS011;62678;52.130;5.584;2023-04-03T13:20:22;2.67;;;0.90;;
11962;SDS011;62678;52.130;5.584;2023-04-03T13:22:53;4.22;;;1.00;;
11962;SDS011;62678;52.130;5.584;2023-04-03T13:25:23;2.05;;;0.80;;
11962;SDS011;62678;52.130;5.584;2023-04-03T13:27:53;1.77;;;0.77;;
11962;SDS011;62678;52.130;5.584;2023-04-03T13:30:22;2.38;;;0.93;;
11962;SDS011;62678;52.130;5.584;2023-04-03T13:32:52;3.03;;;1.13;;
11962;SDS011;62678;52.130;5.584;2023-04-03T13:35:28;4.03;;;1.00;;
11962;SDS011;62678;52.130;5.584;2023-04-03T13:37:59;2.78;;;1.00;;
11962;SDS011;62678;52.130;5.584;2023-04-03T13:40:27;2.40;;;1.15;;
11962;SDS011;62678;52.130;5.584;2023-04-03T13:42:58;2.50;;;1.10;;
11962;SDS011;62678;52.130;5.584;2023-04-03T13:45:31;2.10;;;1.08;;
11962;SDS011;62678;52.130;5.584;2023-04-03T13:48:10;4.25;;;1.10;;
11962;SDS011;62678;52.130;5.584;2023-04-03T13:50:51;3.20;;;0.80;;
11962;SDS011;62678;52.130;5.584;2023-04-03T13:53:21;3.05;;;0.95;;
11962;SDS011;62678;52.130;5.584;2023-04-03T13:55:53;2.15;;;1.08;;
11962;SDS011;62678;52.130;5.584;2023-04-03T13:58:23;1.60;;;0.80;;
11962;SDS011;62678;52.130;5.584;2023-04-03T14:00:53;3.53;;;1.13;;
11962;SDS011;62678;52.130;5.584;2023-04-03T14:03:22;1.65;;;0.95;;
11962;SDS011;62678;52.130;5.584;2023-04-03T14:05:52;2.03;;;0.90;;
11962;SDS011;62678;52.130;5.584;2023-04-03T14:08:20;1.35;;;0.80;;
11962;SDS011;62678;52.130;5.584;2023-04-03T14:10:48;1.98;;;1.08;;
11962;SDS011;62678;52.130;5.584;2023-04-03T14:13:17;4.82;;;1.58;;
11962;SDS011;62678;52.130;5.584;2023-04-03T14:15:46;3.45;;;1.33;;
11962;SDS011;62678;52.130;5.584;2023-04-03T14:18:17;1.70;;;1.13;;
11962;SDS011;62678;52.130;5.584;2023-04-03T14:20:45;3.50;;;1.40;;
11962;SDS011;62678;52.130;5.584;2023-04-03T14:23:14;1.60;;;1.02;;
11962;SDS011;62678;52.130;5.584;2023-04-03T14:25:42;3.22;;;1.80;;
11962;SDS011;62678;52.130;5.584;2023-04-03T14:28:14;1.85;;;0.95;;
11962;SDS011;62678;52.130;5.584;2023-04-03T14:30:43;2.80;;;1.30;;
11962;SDS011;62678;52.130;5.584;2023-04-03T14:33:13;4.00;;;1.30;;
11962;SDS011;62678;52.130;5.584;2023-04-03T14:35:42;3.15;;;1.50;;
11962;SDS011;62678;52.130;5.584;2023-04-03T14:38:20;1.73;;;1.20;;
11962;SDS011;62678;52.130;5.584;2023-04-03T14:40:50;3.60;;;1.33;;
11962;SDS011;62678;52.130;5.584;2023-04-03T14:43:18;3.53;;;1.60;;
11962;SDS011;62678;52.130;5.584;2023-04-03T14:45:46;2.88;;;1.40;;
11962;SDS011;62678;52.130;5.584;2023-04-03T14:48:15;1.98;;;1.20;;
11962;SDS011;62678;52.130;5.584;2023-04-03T14:50:45;4.18;;;1.30;;
11962;SDS011;62678;52.130;5.584;2023-04-03T14:53:13;2.47;;;1.17;;
11962;SDS011;62678;52.130;5.584;2023-04-03T14:55:43;2.97;;;1.55;;
11962;SDS011;62678;52.130;5.584;2023-04-03T14:58:13;5.05;;;1.80;;
11962;SDS011;62678;52.130;5.584;2023-04-03T15:00:41;3.95;;;1.40;;
11962;SDS011;62678;52.130;5.584;2023-04-03T15:03:11;2.70;;;1.30;;
11962;SDS011;62678;52.130;5.584;2023-04-03T15:05:41;3.63;;;1.40;;
11962;SDS011;62678;52.130;5.584;2023-04-03T15:08:13;2.28;;;1.17;;
11962;SDS011;62678;52.130;5.584;2023-04-03T15:10:46;3.78;;;1.10;;
11962;SDS011;62678;52.130;5.584;2023-04-03T15:13:14;3.08;;;1.42;;
11962;SDS011;62678;52.130;5.584;2023-04-03T15:15:41;2.17;;;1.10;;
11962;SDS011;62678;52.130;5.584;2023-04-03T15:18:10;3.63;;;1.67;;
11962;SDS011;62678;52.130;5.584;2023-04-03T15:20:42;3.58;;;1.65;;